createdAt,value
2022-09-27T00:00:39.703Z,9.10
2022-09-27T00:03:27.608Z,9.50
2022-09-27T00:06:20.040Z,9.10
2022-09-27T00:09:11.991Z,9.20
2022-09-27T00:11:59.483Z,9.10
2022-09-27T00:14:47.688Z,9.10
2022-09-27T00:17:35.837Z,9.10
2022-09-27T00:20:24.730Z,8.90
2022-09-27T00:23:15.420Z,9.00
2022-09-27T00:26:02.968Z,9.00
2022-09-27T00:28:52.184Z,9.00
2022-09-27T00:31:42.107Z,8.20
2022-09-27T00:34:40.989Z,10.50
2022-09-27T00:37:31.453Z,9.10
2022-09-27T00:40:24.565Z,9.00
2022-09-27T00:43:16.746Z,11.10
2022-09-27T00:46:05.693Z,8.80
2022-09-27T00:49:01.337Z,9.00
2022-09-27T00:51:56.550Z,9.10
2022-09-27T00:54:45.675Z,10.50
2022-09-27T00:57:34.417Z,9.40
2022-09-27T01:00:22.885Z,9.00
2022-09-27T01:03:11.604Z,9.10
2022-09-27T01:06:00.365Z,9.10
2022-09-27T01:08:48.985Z,9.10
2022-09-27T01:11:41.961Z,9.10
2022-09-27T01:14:40.233Z,9.00
2022-09-27T01:17:34.952Z,9.10
2022-09-27T01:20:38.312Z,9.00
2022-09-27T01:23:40.994Z,9.00
2022-09-27T01:26:34.615Z,9.00
2022-09-27T01:29:29.927Z,9.00
2022-09-27T01:32:26.690Z,9.00
2022-09-27T01:35:18.861Z,9.00
2022-09-27T01:38:13.543Z,8.90
2022-09-27T01:41:05.069Z,8.90
2022-09-27T01:44:23.529Z,9.10
2022-09-27T01:47:18.332Z,8.60
2022-09-27T01:50:15.107Z,8.80
2022-09-27T01:53:04.798Z,8.80
2022-09-27T01:56:02.469Z,10.80
2022-09-27T01:59:10.991Z,9.20
2022-09-27T02:02:11.030Z,8.70
2022-09-27T02:05:19.761Z,8.70
2022-09-27T02:08:16.384Z,8.60
2022-09-27T02:11:07.105Z,9.70
2022-09-27T02:13:56.282Z,8.50
2022-09-27T02:17:01.355Z,8.60
2022-09-27T02:19:55.156Z,8.70
2022-09-27T02:22:52.434Z,8.70
2022-09-27T02:25:50.241Z,8.60
2022-09-27T02:28:42.243Z,8.60
2022-09-27T02:31:33.098Z,8.60
2022-09-27T02:34:23.298Z,8.60
2022-09-27T02:37:11.175Z,8.60
2022-09-27T02:40:01.059Z,9.10
2022-09-27T02:42:49.023Z,8.60
2022-09-27T02:45:43.835Z,8.60
2022-09-27T02:48:35.587Z,8.60
2022-09-27T02:51:43.185Z,8.60
2022-09-27T02:54:36.601Z,8.60
2022-09-27T02:57:31.141Z,8.70
2022-09-27T03:00:33.790Z,8.50
2022-09-27T03:04:00.582Z,8.50
2022-09-27T03:06:51.490Z,8.50
2022-09-27T03:09:43.278Z,8.50
2022-09-27T03:12:32.806Z,8.50
2022-09-27T03:15:20.864Z,8.50
2022-09-27T03:18:20.871Z,8.50
2022-09-27T03:21:17.454Z,8.50
2022-09-27T03:24:05.149Z,8.50
2022-09-27T03:26:56.357Z,8.50
2022-09-27T03:29:46.163Z,8.60
2022-09-27T03:32:43.387Z,9.70
2022-09-27T03:35:50.500Z,8.50
2022-09-27T03:38:38.438Z,8.50
2022-09-27T03:41:30.376Z,8.50
2022-09-27T03:44:18.693Z,8.40
2022-09-27T03:47:07.842Z,8.40
2022-09-27T03:49:55.635Z,8.40
2022-09-27T03:52:44.246Z,8.40
2022-09-27T03:55:32.030Z,8.50
2022-09-27T03:58:19.490Z,8.30
2022-09-27T04:01:08.227Z,8.40
2022-09-27T04:03:58.802Z,9.30
2022-09-27T04:06:57.030Z,8.40
2022-09-27T04:09:47.259Z,8.30
2022-09-27T04:12:35.462Z,8.40
2022-09-27T04:15:23.083Z,8.30
2022-09-27T04:18:31.308Z,8.40
2022-09-27T04:21:25.355Z,8.30
2022-09-27T04:24:13.902Z,8.40
2022-09-27T04:27:10.472Z,8.40
2022-09-27T04:30:08.181Z,8.30
2022-09-27T04:33:15.838Z,8.30
2022-09-27T04:36:29.614Z,8.40
2022-09-27T04:39:37.232Z,8.30
2022-09-27T04:42:25.273Z,8.10
2022-09-27T04:45:15.951Z,8.20
2022-09-27T04:48:04.250Z,8.10
2022-09-27T04:50:57.903Z,8.10
2022-09-27T04:53:48.529Z,7.50
2022-09-27T04:56:36.177Z,8.30
2022-09-27T04:59:26.433Z,8.10
2022-09-27T05:02:18.922Z,7.30
2022-09-27T05:05:26.433Z,8.10
2022-09-27T05:08:16.970Z,8.10
2022-09-27T05:11:30.324Z,10.30
2022-09-27T05:14:38.594Z,8.00
2022-09-27T05:17:48.200Z,8.10
2022-09-27T05:20:59.269Z,8.20
2022-09-27T05:23:54.348Z,8.20
2022-09-27T05:26:43.853Z,8.20
2022-09-27T05:29:33.451Z,8.20
2022-09-27T05:32:29.428Z,10.30
2022-09-27T05:35:45.486Z,8.20
2022-09-27T05:38:35.752Z,8.30
2022-09-27T05:41:26.638Z,8.40
2022-09-27T05:44:17.009Z,8.20
2022-09-27T05:47:16.409Z,8.30
2022-09-27T05:50:05.913Z,8.20
2022-09-27T05:52:56.386Z,8.20
2022-09-27T05:55:44.662Z,8.30
2022-09-27T05:58:34.753Z,8.20
2022-09-27T06:01:35.944Z,8.60
2022-09-27T06:04:59.034Z,8.60
2022-09-27T06:08:06.876Z,8.40
2022-09-27T06:11:06.453Z,8.50
2022-09-27T06:13:57.693Z,6.70
2022-09-27T06:16:52.546Z,8.70
2022-09-27T06:19:41.799Z,8.50
2022-09-27T06:22:29.743Z,8.50
2022-09-27T06:25:24.124Z,8.50
2022-09-27T06:28:27.003Z,8.70
2022-09-27T06:31:20.519Z,8.50
2022-09-27T06:34:18.811Z,10.20
2022-09-27T06:37:07.249Z,8.60
2022-09-27T06:39:56.174Z,8.80
2022-09-27T06:43:11.161Z,8.60
2022-09-27T06:46:28.460Z,8.70
2022-09-27T06:49:37.340Z,8.60
2022-09-27T06:52:28.594Z,8.60
2022-09-27T06:55:17.146Z,8.60
2022-09-27T06:58:24.948Z,9.50
2022-09-27T07:01:35.174Z,8.80
2022-09-27T07:04:36.518Z,9.50
2022-09-27T07:07:25.176Z,8.70
2022-09-27T07:10:13.934Z,8.70
2022-09-27T07:13:09.235Z,8.70
2022-09-27T07:15:57.286Z,8.80
2022-09-27T07:18:44.869Z,10.60
2022-09-27T07:21:34.320Z,7.20
2022-09-27T07:24:22.803Z,9.00
2022-09-27T07:27:12.365Z,9.60
2022-09-27T07:30:00.055Z,8.90
2022-09-27T07:32:47.861Z,8.90
2022-09-27T07:35:37.267Z,9.00
2022-09-27T07:38:26.423Z,9.10
2022-09-27T07:41:15.535Z,9.10
2022-09-27T07:44:05.220Z,9.10
2022-09-27T07:46:55.560Z,9.10
2022-09-27T07:49:48.035Z,9.30
2022-09-27T07:52:52.541Z,9.20
2022-09-27T07:56:07.570Z,9.20
2022-09-27T07:58:55.223Z,9.20
2022-09-27T08:01:43.214Z,10.00
2022-09-27T08:04:31.042Z,9.50
2022-09-27T08:07:18.998Z,9.70
2022-09-27T08:10:11.812Z,9.80
2022-09-27T08:13:01.138Z,9.90
2022-09-27T08:15:48.955Z,10.10
2022-09-27T08:18:37.647Z,10.20
2022-09-27T08:21:58.744Z,10.10
2022-09-27T08:24:55.166Z,10.00
2022-09-27T08:28:04.711Z,9.90
2022-09-27T08:30:56.700Z,9.80
2022-09-27T08:33:47.127Z,9.70
2022-09-27T08:36:36.207Z,9.70
2022-09-27T08:39:24.375Z,9.70
2022-09-27T08:42:18.914Z,9.80
2022-09-27T08:45:13.058Z,10.40
2022-09-27T08:48:02.390Z,9.90
2022-09-27T08:50:51.451Z,10.00
2022-09-27T08:53:41.094Z,10.00
2022-09-27T08:56:28.347Z,10.00
2022-09-27T08:59:21.274Z,10.10
2022-09-27T09:02:15.074Z,10.00
2022-09-27T09:05:08.799Z,10.00
2022-09-27T09:08:14.751Z,10.00
2022-09-27T09:11:26.923Z,10.00
2022-09-27T09:14:42.332Z,8.60
2022-09-27T09:17:36.592Z,10.50
2022-09-27T09:20:51.406Z,9.80
2022-09-27T09:23:52.132Z,9.80
2022-09-27T09:26:41.581Z,11.50
2022-09-27T09:29:39.015Z,9.80
2022-09-27T09:32:32.990Z,9.80
2022-09-27T09:35:24.032Z,9.70
2022-09-27T09:38:14.316Z,9.70
2022-09-27T09:41:06.740Z,9.60
2022-09-27T09:43:58.427Z,9.50
2022-09-27T09:46:47.271Z,9.60
2022-09-27T09:49:37.547Z,9.50
2022-09-27T09:52:28.213Z,9.50
2022-09-27T09:55:19.412Z,9.40
2022-09-27T09:58:19.092Z,9.10
2022-09-27T10:01:18.583Z,7.70
2022-09-27T10:04:06.686Z,9.40
2022-09-27T10:06:57.229Z,9.40
2022-09-27T10:09:47.102Z,9.40
2022-09-27T10:12:58.523Z,9.50
2022-09-27T10:15:56.737Z,9.40
2022-09-27T10:18:49.677Z,9.50
2022-09-27T10:21:41.439Z,9.70
2022-09-27T10:24:29.150Z,10.00
2022-09-27T10:27:39.567Z,9.90
2022-09-27T10:30:29.766Z,10.20
2022-09-27T10:33:19.304Z,11.00
2022-09-27T10:36:24.144Z,10.20
2022-09-27T10:39:23.880Z,10.20
2022-09-27T10:42:22.532Z,10.30
2022-09-27T10:45:31.843Z,10.50
2022-09-27T10:48:27.932Z,10.50
2022-09-27T10:51:25.290Z,10.50
2022-09-27T10:54:21.138Z,10.70
2022-09-27T10:57:19.313Z,10.90
2022-09-27T11:00:24.866Z,12.30
2022-09-27T11:03:16.000Z,11.30
2022-09-27T11:06:19.947Z,11.20
2022-09-27T11:09:20.222Z,11.30
2022-09-27T11:12:11.939Z,11.30
2022-09-27T11:15:02.851Z,11.40
2022-09-27T11:17:57.182Z,11.60
2022-09-27T11:20:47.752Z,11.90
2022-09-27T11:23:46.605Z,11.60
2022-09-27T11:26:46.177Z,11.70
2022-09-27T11:29:42.984Z,11.50
2022-09-27T11:32:58.933Z,11.80
2022-09-27T11:35:59.651Z,12.50
2022-09-27T11:39:00.524Z,12.10
2022-09-27T11:42:06.527Z,12.30
2022-09-27T11:45:34.192Z,12.40
2022-09-27T11:48:24.442Z,12.70
2022-09-27T11:51:16.680Z,12.60
2022-09-27T11:54:18.658Z,11.60
2022-09-27T11:57:09.240Z,11.00
2022-09-27T12:00:05.595Z,10.20
2022-09-27T12:03:13.158Z,9.80
2022-09-27T12:06:07.441Z,9.60
2022-09-27T12:09:04.189Z,9.50
2022-09-27T12:12:01.123Z,9.80
2022-09-27T12:14:51.894Z,10.00
2022-09-27T12:17:44.148Z,10.40
2022-09-27T12:20:37.186Z,10.60
2022-09-27T12:23:27.764Z,10.90
2022-09-27T12:26:37.462Z,11.20
2022-09-27T12:29:30.282Z,11.10
2022-09-27T12:32:20.024Z,11.10
2022-09-27T12:35:11.890Z,11.20
2022-09-27T12:38:04.104Z,11.30
2022-09-27T12:40:54.284Z,11.40
2022-09-27T12:43:53.128Z,11.60
2022-09-27T12:47:08.500Z,11.90
2022-09-27T12:50:02.201Z,11.20
2022-09-27T12:52:53.242Z,12.20
2022-09-27T12:55:51.175Z,12.20
2022-09-27T12:59:02.833Z,12.40
2022-09-27T13:02:07.743Z,12.60
2022-09-27T13:05:02.273Z,12.70
2022-09-27T13:07:56.000Z,12.70
2022-09-27T13:10:50.078Z,12.40
2022-09-27T13:13:49.359Z,12.40
2022-09-27T13:16:44.859Z,12.40
2022-09-27T13:19:43.161Z,13.30
2022-09-27T13:22:41.403Z,12.50
2022-09-27T13:25:55.604Z,12.60
2022-09-27T13:28:59.403Z,12.50
2022-09-27T13:32:03.585Z,12.30
2022-09-27T13:35:13.184Z,12.00
2022-09-27T13:38:06.262Z,11.70
2022-09-27T13:41:17.756Z,11.40
2022-09-27T13:44:25.850Z,11.20
2022-09-27T13:47:18.858Z,11.20
2022-09-27T13:50:19.738Z,11.20
2022-09-27T13:53:19.527Z,12.00
2022-09-27T13:56:07.716Z,11.40
2022-09-27T13:59:04.496Z,11.60
2022-09-27T14:02:22.528Z,11.80
2022-09-27T14:05:13.022Z,11.90
2022-09-27T14:08:02.457Z,12.10
2022-09-27T14:10:52.882Z,12.40
2022-09-27T14:13:41.157Z,12.20
2022-09-27T14:16:33.014Z,12.30
2022-09-27T14:19:21.896Z,12.40
2022-09-27T14:22:13.351Z,12.50
2022-09-27T14:25:17.881Z,12.50
2022-09-27T14:28:24.006Z,12.60
2022-09-27T14:31:34.278Z,12.60
2022-09-27T14:34:33.348Z,12.70
2022-09-27T14:37:29.094Z,13.00
2022-09-27T14:40:24.176Z,12.80
2022-09-27T14:43:20.745Z,12.70
2022-09-27T14:46:28.132Z,12.80
2022-09-27T14:49:21.229Z,12.70
2022-09-27T14:52:17.335Z,12.80
2022-09-27T14:55:07.973Z,12.80
2022-09-27T14:57:56.762Z,12.90
2022-09-27T15:00:47.546Z,12.80
2022-09-27T15:03:44.185Z,12.80
2022-09-27T15:06:32.793Z,12.70
2022-09-27T15:09:21.123Z,12.50
2022-09-27T15:12:14.430Z,12.30
2022-09-27T15:15:02.516Z,12.20
2022-09-27T15:17:52.792Z,12.10
2022-09-27T15:20:53.994Z,12.00
2022-09-27T15:23:42.602Z,11.90
2022-09-27T15:26:41.876Z,11.80
2022-09-27T15:29:32.546Z,11.40
2022-09-27T15:32:29.777Z,10.90
2022-09-27T15:35:21.774Z,10.50
2022-09-27T15:38:43.963Z,10.00
2022-09-27T15:41:53.312Z,9.80
2022-09-27T15:44:47.651Z,9.80
2022-09-27T15:47:50.057Z,9.60
2022-09-27T15:50:38.376Z,9.70
2022-09-27T15:53:42.271Z,9.70
2022-09-27T15:56:29.675Z,9.70
2022-09-27T15:59:26.880Z,10.50
2022-09-27T16:02:17.705Z,10.50
2022-09-27T16:05:06.173Z,10.60
2022-09-27T16:07:54.656Z,10.60
2022-09-27T16:10:44.495Z,10.50
2022-09-27T16:13:33.338Z,10.40
2022-09-27T16:16:23.709Z,10.30
2022-09-27T16:19:11.975Z,10.30
2022-09-27T16:22:03.891Z,10.20
2022-09-27T16:24:54.639Z,10.10
2022-09-27T16:27:42.479Z,10.10
2022-09-27T16:30:31.488Z,10.10
2022-09-27T16:33:20.881Z,10.00
2022-09-27T16:36:14.662Z,10.10
2022-09-27T16:39:05.174Z,10.30
2022-09-27T16:41:54.889Z,10.10
2022-09-27T16:44:42.633Z,9.10
2022-09-27T16:47:30.410Z,10.10
2022-09-27T16:50:38.089Z,10.00
2022-09-27T16:53:25.799Z,9.90
2022-09-27T16:56:13.446Z,9.90
2022-09-27T16:59:03.147Z,9.90
2022-09-27T17:01:50.641Z,9.90
2022-09-27T17:04:39.060Z,10.10
2022-09-27T17:07:28.147Z,9.80
2022-09-27T17:10:18.352Z,9.80
2022-09-27T17:13:07.472Z,9.70
2022-09-27T17:15:56.331Z,9.70
2022-09-27T17:18:45.474Z,9.60
2022-09-27T17:21:37.911Z,9.60
2022-09-27T17:24:27.806Z,9.60
2022-09-27T17:27:22.869Z,9.70
2022-09-27T17:30:14.294Z,9.60
2022-09-27T17:33:01.801Z,9.60
2022-09-27T17:35:49.260Z,9.60
2022-09-27T17:38:37.141Z,9.70
2022-09-27T17:41:27.421Z,9.70
2022-09-27T17:44:16.939Z,9.70
2022-09-27T17:47:26.520Z,9.70
2022-09-27T17:50:27.395Z,9.80
2022-09-27T17:53:15.726Z,9.70
2022-09-27T17:56:03.255Z,9.80
2022-09-27T17:58:53.080Z,9.80
2022-09-27T18:01:41.321Z,9.80
2022-09-27T18:04:28.997Z,9.80
2022-09-27T18:07:16.702Z,9.90
2022-09-27T18:10:06.211Z,9.60
2022-09-27T18:12:54.145Z,9.20
2022-09-27T18:15:43.507Z,8.00
2022-09-27T18:18:31.531Z,8.80
2022-09-27T18:21:23.430Z,8.60
2022-09-27T18:24:14.490Z,8.60
2022-09-27T18:27:02.343Z,8.40
2022-09-27T18:29:57.333Z,8.40
2022-09-27T18:32:46.873Z,8.40
2022-09-27T18:35:35.964Z,8.40
2022-09-27T18:38:24.289Z,8.40
2022-09-27T18:41:13.550Z,8.40
2022-09-27T18:44:05.302Z,9.70
2022-09-27T18:46:52.979Z,10.60
2022-09-27T18:49:43.001Z,8.40
2022-09-27T18:52:30.630Z,8.20
2022-09-27T18:55:21.037Z,8.40
2022-09-27T18:58:16.618Z,8.20
2022-09-27T19:01:05.907Z,8.30
2022-09-27T19:03:56.819Z,8.20
2022-09-27T19:06:46.352Z,8.20
2022-09-27T19:09:34.273Z,8.30
2022-09-27T19:12:22.819Z,8.10
2022-09-27T19:15:11.407Z,8.20
2022-09-27T19:18:02.923Z,8.30
2022-09-27T19:20:50.323Z,8.10
2022-09-27T19:23:42.786Z,8.30
2022-09-27T19:26:30.261Z,10.30
2022-09-27T19:29:17.958Z,8.30
2022-09-27T19:32:05.724Z,8.40
2022-09-27T19:34:53.528Z,8.40
2022-09-27T19:37:42.030Z,8.30
2022-09-27T19:40:32.149Z,8.90
2022-09-27T19:43:20.151Z,8.40
2022-09-27T19:46:08.566Z,8.70
2022-09-27T19:48:57.255Z,8.40
2022-09-27T19:51:46.509Z,8.40
2022-09-27T19:54:36.065Z,8.40
2022-09-27T19:57:25.049Z,8.60
2022-09-27T20:00:13.087Z,8.40
2022-09-27T20:03:01.580Z,8.40
2022-09-27T20:05:53.089Z,8.60
2022-09-27T20:08:42.963Z,8.40
2022-09-27T20:11:34.330Z,8.40
2022-09-27T20:14:24.321Z,8.40
2022-09-27T20:17:15.235Z,8.30
2022-09-27T20:20:05.256Z,9.30
2022-09-27T20:22:56.595Z,8.30
2022-09-27T20:25:45.139Z,8.20
2022-09-27T20:28:33.438Z,8.30
2022-09-27T20:31:24.967Z,8.20
2022-09-27T20:34:13.477Z,8.20
2022-09-27T20:37:01.214Z,8.10
2022-09-27T20:39:49.453Z,8.20
2022-09-27T20:42:37.028Z,8.10
2022-09-27T20:45:24.506Z,8.20
2022-09-27T20:48:14.313Z,8.00
2022-09-27T20:51:05.067Z,7.90
2022-09-27T20:53:52.855Z,7.80
2022-09-27T20:56:41.977Z,7.80
2022-09-27T20:59:30.322Z,7.80
2022-09-27T21:02:19.534Z,6.80
2022-09-27T21:05:09.313Z,7.80
2022-09-27T21:07:57.240Z,7.80
2022-09-27T21:10:49.233Z,8.90
2022-09-27T21:13:43.297Z,7.70
2022-09-27T21:16:36.122Z,7.70
2022-09-27T21:19:23.568Z,7.70
2022-09-27T21:22:14.284Z,7.70
2022-09-27T21:25:01.849Z,7.80
2022-09-27T21:27:54.736Z,7.80
2022-09-27T21:30:42.623Z,7.80
2022-09-27T21:33:30.549Z,7.80
2022-09-27T21:36:18.755Z,7.90
2022-09-27T21:39:09.890Z,7.90
2022-09-27T21:41:57.707Z,8.00
2022-09-27T21:44:45.649Z,7.90
2022-09-27T21:47:34.283Z,8.00
2022-09-27T21:50:21.546Z,8.00
2022-09-27T21:53:09.704Z,8.00
2022-09-27T21:56:00.568Z,8.00
2022-09-27T21:58:48.767Z,8.00
2022-09-27T22:01:36.629Z,8.00
2022-09-27T22:04:24.922Z,8.00
2022-09-27T22:07:12.816Z,8.10
2022-09-27T22:10:02.782Z,8.10
2022-09-27T22:12:52.483Z,8.00
2022-09-27T22:15:40.115Z,8.00
2022-09-27T22:18:27.932Z,8.00
2022-09-27T22:21:16.503Z,8.10
2022-09-27T22:24:07.985Z,8.10
2022-09-27T22:26:56.084Z,8.20
2022-09-27T22:29:45.782Z,8.30
2022-09-27T22:32:36.387Z,8.40
2022-09-27T22:35:24.374Z,8.30
2022-09-27T22:38:11.852Z,8.40
2022-09-27T22:41:01.295Z,8.40
2022-09-27T22:43:49.615Z,8.30
2022-09-27T22:46:38.750Z,8.30
2022-09-27T22:49:26.112Z,8.30
2022-09-27T22:52:13.810Z,8.30
2022-09-27T22:55:02.021Z,8.30
2022-09-27T22:57:50.008Z,8.30
2022-09-27T23:00:39.077Z,8.30
2022-09-27T23:03:28.131Z,8.30
2022-09-27T23:06:16.050Z,8.30
2022-09-27T23:09:03.983Z,8.80
2022-09-27T23:11:51.403Z,8.30
2022-09-27T23:14:42.446Z,8.30
2022-09-27T23:17:30.139Z,8.30
2022-09-27T23:20:19.952Z,8.30
2022-09-27T23:23:13.739Z,8.30
2022-09-27T23:26:02.033Z,8.30
2022-09-27T23:28:52.892Z,8.30
2022-09-27T23:31:41.026Z,8.30
2022-09-27T23:34:29.106Z,8.30
2022-09-27T23:37:18.763Z,8.30
2022-09-27T23:40:07.494Z,7.50
2022-09-27T23:42:55.665Z,8.30
2022-09-27T23:45:44.127Z,8.30
2022-09-27T23:48:31.299Z,8.30
2022-09-27T23:51:18.897Z,8.30
2022-09-27T23:54:07.396Z,8.40
2022-09-27T23:56:54.854Z,8.30
2022-09-27T23:59:43.290Z,8.20
